• Join FlightAware (Why Join?)
  • Login
  • US Flag 
10:01PM EDT


 

Airport Tracker/Info


-or-


 

Live Flight TrackerFlight Track Log ✈ HA117 ✈ 31-Jul-2014 ✈ CYXT - CYVR

Flight Track Log - Related Links

Times and Time Zones

All times are in EDT time to prevent confusion due to time zone crossing. See the HA117 flight status page for this flight to view local times or setup timezone preferences in your user account.

Time Position Orientation Groundspeed Altitude Reporting Facility
EDT Latitude Longitude Course Direction KTS MPH feet Rate Location/Type
11:48PM 54.1632 -128.2227 146° Southeast  Level FlightAware Approximate
11:49PM 54.1126 -128.1640 146° Southeast  Level FlightAware Approximate
11:49PM 54.2000 -128.3833 146° Southeast 190 219 8,900  Level Vancouver Center
11:51PM 54.1167 -128.3000 145° Southeast 190 219 10,800 900 Climbing Vancouver Center
11:52PM 53.9605 -127.9890 146° Southeast  Level FlightAware Approximate
11:52PM 54.0833 -128.2333 130° Southeast 170 196 11,800  Level Vancouver Center
11:53PM 53.9098 -127.9309 146° Southeast  Level FlightAware Approximate
11:53PM 54.0333 -128.2000 159° South 170 196 12,600  Level Vancouver Center
11:54PM 53.8590 -127.8730 146° Southeast  Level FlightAware Approximate
11:54PM 54.0000 -128.1500 139° Southeast 180 207 13,600  Level Vancouver Center
11:55PM 53.8082 -127.8152 146° Southeast  Level FlightAware Approximate
11:55PM 53.9500 -128.0833 142° Southeast 170 196 14,400  Level Vancouver Center
11:56PM 53.9167 -128.0500 150° Southeast 190 219 15,200 720 Climbing Vancouver Center
11:57PM 53.8667 -127.9833 142° Southeast 180 207 15,900 720 Climbing Vancouver Center
11:58PM 53.8500 -127.9500 130° Southeast 190 219 16,700 780 Climbing Vancouver Center
11:59PM 53.8000 -127.9000 149° Southeast 190 219 17,500 600 Climbing Vancouver Center
12:00AM 53.7500 -127.8333 142° Southeast 180 207 17,900 540 Climbing Vancouver Center
12:01AM 53.7167 -127.8000 149° Southeast 180 207 18,600 600 Climbing Vancouver Center
12:02AM 53.6667 -127.7333 142° Southeast 190 219 19,100 480 Climbing Vancouver Center
12:03AM 53.6167 -127.6833 149° Southeast 200 230 19,600 480 Climbing Vancouver Center
12:04AM 53.5667 -127.6167 142° Southeast 200 230 20,100 480 Climbing Vancouver Center
12:05AM 53.5167 -127.5833 158° South 210 242 20,600 480 Climbing Vancouver Center
12:06AM 53.4667 -127.5333 149° Southeast 210 242 21,100 480 Climbing Vancouver Center
12:07AM 53.4167 -127.4667 142° Southeast 210 242 21,600 420 Climbing Vancouver Center
12:08AM 53.3833 -127.4000 130° Southeast 210 242 22,000 360 Climbing Vancouver Center
12:09AM 53.3333 -127.3500 149° Southeast 210 242 22,400 420 Climbing Vancouver Center
12:10AM 53.3000 -127.3167 149° Southeast 210 242 22,900 300 Climbing Vancouver Center
12:11AM 53.2500 -127.2500 141° Southeast 200 230 23,000  Climbing Vancouver Center
12:12AM 53.2000 -127.2000 149° Southeast 220 253 23,000  Level Vancouver Center
12:13AM 53.1333 -127.1333 149° Southeast 230 265 23,000  Level Vancouver Center
12:14AM 53.0833 -127.0833 149° Southeast 230 265 23,000  Level Vancouver Center
12:15AM 53.0333 -126.9833 130° Southeast 250 288 23,000  Level Vancouver Center
12:16AM 52.9667 -126.9333 156° South 260 299 23,000  Level Vancouver Center
12:17AM 52.9000 -126.8667 149° Southeast 250 288 23,000  Level Vancouver Center
12:18AM 52.8500 -126.8167 149° Southeast 240 276 23,000  Level Vancouver Center
12:19AM 52.8000 -126.7500 141° Southeast 240 276 23,000  Level Vancouver Center
12:20AM 52.7500 -126.6667 135° Southeast 240 276 23,000  Level Vancouver Center
12:21AM 52.7000 -126.6000 141° Southeast 240 276 23,000  Level Vancouver Center
12:22AM 52.6333 -126.5500 156° South 240 276 23,000  Level Vancouver Center
12:23AM 52.5833 -126.4833 141° Southeast 240 276 23,000  Level Vancouver Center
12:24AM 52.5333 -126.4333 149° Southeast 240 276 23,000  Level Vancouver Center
12:25AM 52.4667 -126.3667 149° Southeast 240 276 23,000  Level Vancouver Center
12:26AM 52.4167 -126.3167 149° Southeast 240 276 23,000  Level Vancouver Center
12:27AM 52.3500 -126.2500 149° Southeast 240 276 23,000  Level Vancouver Center
12:28AM 52.3000 -126.2000 149° Southeast 240 276 23,000  Level Vancouver Center
12:29AM 52.2333 -126.1500 155° Southeast 240 276 23,000  Level Vancouver Center
12:30AM 52.1833 -126.0833 141° Southeast 240 276 23,000  Level Vancouver Center
12:31AM 52.1333 -126.0000 134° Southeast 240 276 23,000  Level Vancouver Center
12:32AM 52.0667 -125.9500 155° Southeast 240 276 23,000  Level Vancouver Center
12:33AM 52.0333 -125.8833 129° Southeast 240 276 23,000  Level Vancouver Center
12:34AM 51.9667 -125.8333 155° Southeast 240 276 23,000  Level Vancouver Center
12:35AM 51.9167 -125.7667 141° Southeast 240 276 23,000  Level Vancouver Center
12:36AM 51.8667 -125.7167 148° Southeast 240 276 23,000  Level Vancouver Center
12:37AM 51.8000 -125.6667 155° Southeast 240 276 23,000  Level Vancouver Center
12:38AM 51.7500 -125.6000 140° Southeast 240 276 23,000  Level Vancouver Center
12:39AM 51.7000 -125.5500 148° Southeast 240 276 23,000  Level Vancouver Center
12:40AM 51.6333 -125.4667 142° Southeast 240 276 23,000  Level Vancouver Center
12:41AM 51.5833 -125.4167 148° Southeast 240 276 23,000  Level Vancouver Center
12:42AM 51.5333 -125.3500 140° Southeast 240 276 23,000  Level Vancouver Center
12:43AM 51.4667 -125.3000 155° Southeast 240 276 23,000  Level Vancouver Center
12:44AM 51.4167 -125.2500 148° Southeast 240 276 23,000  Level Vancouver Center
12:45AM 51.3500 -125.1833 148° Southeast 240 276 23,000  Level Vancouver Center
12:46AM 51.3333 -125.0833 105° East 250 288 23,000  Level Vancouver Center
12:47AM 51.3000 -124.9667 115° Southeast 240 276 23,000  Level Vancouver Center
12:48AM 51.2667 -124.9000 129° Southeast 250 288 23,000  Level Vancouver Center
12:49AM 51.2333 -124.7833 114° Southeast 250 288 23,000  Level Vancouver Center
12:50AM 51.2000 -124.6833 118° Southeast 250 288 23,000  Level Vancouver Center
12:51AM 51.1667 -124.6000 123° Southeast 250 288 23,000  Level Vancouver Center
12:52AM 51.1333 -124.4833 114° Southeast 250 288 23,000  Level Vancouver Center
12:53AM 51.1167 -124.4167 112° Southeast 250 288 23,000  Level Vancouver Center
12:54AM 51.0667 -124.3000 124° Southeast 250 288 23,000  Level Vancouver Center
12:55AM 51.0167 -124.2833 168° South 230 265 23,000  Level Vancouver Center
12:56AM 50.9500 -124.2500 163° South 240 276 23,000  Level Vancouver Center
12:57AM 50.8833 -124.2167 162° South 230 265 23,000  Level Vancouver Center
12:58AM 50.8167 -124.2000 171° South 240 276 23,000  Level Vancouver Center
12:59AM 50.7667 -124.1667 157° South 230 265 23,000  Level Vancouver Center
01:00AM 50.7000 -124.1333 162° South 230 265 23,000 -60 Level Vancouver Center
01:01AM 50.6333 -124.1167 171° South 240 276 22,900 -420 Descending Vancouver Center
01:02AM 50.5667 -124.0833 162° South 250 288 22,200 -780 Descending Vancouver Center
01:03AM 50.5000 -124.0333 154° Southeast 270 311 21,400 -900 Descending Vancouver Center
01:04AM 50.4333 -124.0167 171° South 280 322 20,500 -1,020 Descending Vancouver Center
01:05AM 50.3500 -123.9833 166° South 290 334 19,400 -1,080 Descending Vancouver Center
01:06AM 50.2667 -123.9333 159° South 290 334 18,400 -960 Descending Vancouver Center
01:07AM 50.1833 -123.9000 166° South 290 334 17,500 -1,080 Descending Vancouver Center
01:08AM 50.1000 -123.8833 173° South 290 334 16,300 -1,200 Descending Vancouver Center
01:09AM 50.0333 -123.8167 147° Southeast 290 334 15,200 -1,140 Descending Vancouver Center
01:10AM 49.9500 -123.8000 173° South 290 334 14,100 -1,140 Descending Vancouver Center
01:11AM 49.8833 -123.7667 162° South 280 322 13,000 -1,080 Descending Vancouver Center
01:12AM 49.8000 -123.7500 173° South 280 322 12,000 -1,020 Descending Vancouver Center
01:13AM 49.7333 -123.7000 154° Southeast 280 322 11,000 -900 Descending Vancouver Center
01:14AM 49.6667 -123.6167 141° Southeast 280 322 10,200 -540 Descending Vancouver Center
01:15AM 49.6000 -123.5667 154° Southeast 260 299 10,000 -120 Descending Vancouver Center
01:16AM 49.5500 -123.5500 168° South 250 288 10,000  Level Vancouver Center
01:17AM 49.4833 -123.4833 147° Southeast 240 276 10,000  Level Vancouver Center
01:18AM 49.4167 -123.4333 154° Southeast 240 276 10,000  Level Vancouver Center
01:19AM 49.3667 -123.3833 147° Southeast 240 276 10,000  Level Vancouver Center
01:20AM 49.3167 -123.3333 147° Southeast 240 276 10,000  Level Vancouver Center
01:21AM 49.2667 -123.2667 139° Southeast 240 276 10,000 -900 Level Vancouver Center
01:22AM 49.2500 -123.1667 104° East 250 288 8,300 -1,560 Descending Vancouver Center
01:23AM 49.2333 -123.0500 102° East 240 276 6,900 -1,740 Descending Vancouver Center
01:24AM 49.2333 -122.9833 90° East 230 265 4,900 -1,800 Descending Vancouver Center
01:25AM 49.2000 -122.8833 117° Southeast 220 253 3,400 -960 Descending Vancouver Center
01:26AM 49.1667 -122.9333 224° Southwest 190 219 3,000 -720 Descending Vancouver Center
01:27AM 49.1667 -122.9833 270° West 180 207 2,000 -900 Descending Vancouver Center
01:28AM 49.1667 -123.0667 270° West 150 173 1,300 -660 Descending Vancouver Center
01:29AM 49.1667 -123.1167 270° West 120 138 700 -600 Descending Vancouver Center
01:30AM 49.1833 -123.1667 297° West 110 127 100 -600 Descending Vancouver Center